createdAt,value
2022-08-18T04:34:47.882Z,15.75
2022-08-18T04:39:50.228Z,16.23
2022-08-18T04:44:53.064Z,16.13
2022-08-18T04:49:55.381Z,14.60
2022-08-18T04:54:57.751Z,14.73
2022-08-18T05:00:00.117Z,16.02
2022-08-18T05:05:03.905Z,15.60
2022-08-18T05:10:06.518Z,15.43
2022-08-18T05:15:10.239Z,16.38
2022-08-18T05:20:12.688Z,16.70
2022-08-18T05:25:16.161Z,15.57
2022-08-18T05:30:18.642Z,16.98
2022-08-18T05:41:14.058Z,17.77
2022-08-18T05:46:17.217Z,19.23
2022-08-18T05:51:41.290Z,18.20
2022-08-18T05:56:47.440Z,16.43
2022-08-18T06:01:56.269Z,16.88
2022-08-18T06:07:04.315Z,17.50
2022-08-18T06:12:19.549Z,15.25
2022-08-18T06:17:26.253Z,16.00
2022-08-18T06:22:37.713Z,15.65
2022-08-18T06:28:14.204Z,16.85
2022-08-18T06:33:54.866Z,15.52
2022-08-18T06:39:23.517Z,16.95
2022-08-18T06:44:45.566Z,15.40
2022-08-18T06:50:02.834Z,16.38
2022-08-18T06:55:32.806Z,15.93
2022-08-18T07:00:39.124Z,15.20
2022-08-18T07:06:06.241Z,15.18
2022-08-18T07:11:17.216Z,15.68
2022-08-18T07:16:56.670Z,15.35
2022-08-18T07:22:13.551Z,15.45
2022-08-18T07:27:20.123Z,15.23
2022-08-18T07:32:23.934Z,15.63
2022-08-18T07:37:32.450Z,15.65
2022-08-18T07:43:01.519Z,15.15
2022-08-18T07:48:44.384Z,16.15
2022-08-18T07:53:54.467Z,15.85
2022-08-18T07:59:09.350Z,16.33
2022-08-18T08:04:26.600Z,15.00
2022-08-18T08:09:47.157Z,15.50
2022-08-18T08:15:03.971Z,15.68
2022-08-18T08:20:17.854Z,15.45
2022-08-18T08:25:44.692Z,14.50
2022-08-18T08:31:35.344Z,15.68
2022-08-18T08:36:40.264Z,15.07
2022-08-18T08:42:29.521Z,14.70
2022-08-18T08:47:36.457Z,15.00
2022-08-18T08:52:46.360Z,15.98
2022-08-18T08:57:57.494Z,15.25
2022-08-18T09:03:02.465Z,14.95
2022-08-18T09:08:07.745Z,14.90
2022-08-18T09:13:36.216Z,15.20
2022-08-18T09:18:45.528Z,14.82
2022-08-18T09:23:53.759Z,15.10
2022-08-18T09:29:12.959Z,13.70
2022-08-18T09:34:31.792Z,13.63
2022-08-18T09:39:57.726Z,13.90
2022-08-18T09:45:05.604Z,14.77
2022-08-18T09:50:30.177Z,15.13
2022-08-18T09:55:32.438Z,14.25
2022-08-18T10:00:34.882Z,14.02
2022-08-18T10:05:38.679Z,13.68
2022-08-18T10:16:22.178Z,12.38
2022-08-18T10:21:31.292Z,12.65
2022-08-18T10:26:40.875Z,12.05
2022-08-18T10:31:57.406Z,12.18
2022-08-18T10:37:26.866Z,11.65
2022-08-18T10:42:53.938Z,10.00
2022-08-18T10:48:16.650Z,9.70
2022-08-18T10:53:39.391Z,10.52
2022-08-18T10:58:58.489Z,9.55
2022-08-18T11:04:14.179Z,9.85
2022-08-18T11:09:28.226Z,9.65
2022-08-18T11:14:52.700Z,10.00
2022-08-18T11:19:56.029Z,9.48
2022-08-18T11:24:59.724Z,9.52
2022-08-18T11:30:05.883Z,9.13
2022-08-18T11:35:16.255Z,8.82
2022-08-18T11:46:00.321Z,8.10
2022-08-18T11:51:09.274Z,7.85
2022-08-18T11:56:21.239Z,7.07
2022-08-18T12:01:41.514Z,7.20
2022-08-18T12:06:57.947Z,8.02
2022-08-18T12:12:13.771Z,7.15
2022-08-18T12:22:28.141Z,8.63
2022-08-18T12:27:33.774Z,8.18
2022-08-18T12:32:48.939Z,8.60
2022-08-18T12:38:04.965Z,8.77
2022-08-18T12:43:15.711Z,8.95
2022-08-18T12:48:22.310Z,9.30
2022-08-18T12:53:29.993Z,9.15
2022-08-18T12:58:40.727Z,9.57
2022-08-18T13:03:44.739Z,8.95
2022-08-18T13:08:55.376Z,9.45
2022-08-18T13:13:58.678Z,9.63
2022-08-18T13:19:02.071Z,11.85
2022-08-18T13:24:09.795Z,12.40
2022-08-18T13:29:17.559Z,12.90
2022-08-18T13:34:20.590Z,12.18
2022-08-18T13:39:25.085Z,8.80
2022-08-18T13:44:36.870Z,8.50
2022-08-18T13:49:39.279Z,8.32
2022-08-18T13:54:42.483Z,8.32
2022-08-18T13:59:46.501Z,7.00
2022-08-18T14:04:49.516Z,8.20
2022-08-18T14:09:54.328Z,7.97
2022-08-18T14:14:57.160Z,7.90
2022-08-18T14:20:21.686Z,8.73
2022-08-18T14:25:44.914Z,9.65
2022-08-18T14:30:54.178Z,10.90
2022-08-18T14:36:06.447Z,9.98
2022-08-18T14:41:14.432Z,10.63
2022-08-18T14:46:17.275Z,9.77
2022-08-18T14:51:19.759Z,11.15
2022-08-18T14:56:33.787Z,10.50
2022-08-18T15:01:42.792Z,10.25
2022-08-18T15:06:45.390Z,11.27
2022-08-18T15:12:00.172Z,10.50
2022-08-18T15:17:11.769Z,10.50
2022-08-18T15:22:34.328Z,10.63
2022-08-18T15:27:42.186Z,12.20
2022-08-18T15:32:47.161Z,12.60
2022-08-18T15:37:54.759Z,13.00
2022-08-18T15:43:01.542Z,14.50
2022-08-18T15:48:04.498Z,13.30
2022-08-18T15:53:07.946Z,13.38
2022-08-18T15:58:12.888Z,14.13
2022-08-18T16:03:16.896Z,15.18
2022-08-18T16:08:21.589Z,12.02
2022-08-18T16:13:26.448Z,11.82
2022-08-18T16:18:29.549Z,10.82
2022-08-18T16:23:31.931Z,11.07
2022-08-18T16:28:39.302Z,11.48
2022-08-18T16:33:43.241Z,11.38
2022-08-18T16:38:47.190Z,12.73
2022-08-18T16:43:49.836Z,15.60
2022-08-18T16:48:53.514Z,15.40
2022-08-18T16:53:56.124Z,17.65
2022-08-18T16:59:17.236Z,17.35
2022-08-18T17:04:22.954Z,13.70
2022-08-18T17:09:26.112Z,15.48
2022-08-18T17:14:30.382Z,13.90
2022-08-18T17:19:35.362Z,13.02
2022-08-18T17:24:38.450Z,13.77
2022-08-18T17:30:07.079Z,14.40
2022-08-18T17:35:15.590Z,14.57
2022-08-18T17:40:29.730Z,14.98
2022-08-18T17:45:36.345Z,14.35
2022-08-18T17:51:09.808Z,13.68
2022-08-18T17:56:42.559Z,13.02
2022-08-18T18:01:45.027Z,13.77
2022-08-18T18:06:49.435Z,12.95
2022-08-18T18:11:52.535Z,12.85
2022-08-18T18:17:14.495Z,13.60
2022-08-18T18:22:24.197Z,11.45
2022-08-18T18:27:28.938Z,11.55
2022-08-18T18:32:38.581Z,12.38
2022-08-18T18:37:57.370Z,12.45
2022-08-18T18:43:26.019Z,11.15
2022-08-18T18:48:51.107Z,11.02
2022-08-18T18:54:19.208Z,10.43
2022-08-18T18:59:26.729Z,10.02
2022-08-18T19:04:44.924Z,10.25
2022-08-18T19:09:59.873Z,10.18
2022-08-18T19:15:11.649Z,10.23
2022-08-18T19:20:23.461Z,10.65
2022-08-18T19:25:29.038Z,10.05
2022-08-18T19:30:37.053Z,10.07
2022-08-18T19:35:59.092Z,10.15
2022-08-18T19:41:31.859Z,10.80
2022-08-18T19:46:44.944Z,9.63
2022-08-18T19:51:50.485Z,9.23
2022-08-18T19:57:07.374Z,9.48
2022-08-18T20:02:56.064Z,10.23
2022-08-18T20:08:30.836Z,9.18
2022-08-18T20:13:42.545Z,9.98
2022-08-18T20:18:49.540Z,9.70
2022-08-18T20:24:29.552Z,11.07
2022-08-18T20:29:36.310Z,10.00
2022-08-18T20:34:38.765Z,9.77
2022-08-18T20:39:48.461Z,11.20
2022-08-18T20:44:50.939Z,9.60
2022-08-18T20:50:20.360Z,10.75
2022-08-18T20:55:53.106Z,10.90
2022-08-18T21:00:57.372Z,11.25
2022-08-18T21:05:59.886Z,12.15
2022-08-18T21:11:31.906Z,11.93
2022-08-18T21:16:39.789Z,12.85
2022-08-18T21:21:51.736Z,12.68
2022-08-18T21:27:00.001Z,12.25
2022-08-18T21:32:12.193Z,13.38
2022-08-18T21:37:18.204Z,12.07
2022-08-18T21:42:27.596Z,13.75
2022-08-18T21:47:33.627Z,13.60
2022-08-18T21:52:39.799Z,12.68
2022-08-18T21:58:08.623Z,13.38
